Time;durP1;ratioP1;P1;durP2;ratioP2;P2;SDS_P1;SDS_P2;PMS_P1;PMS_P2;Temp;Humidity;BMP_temperature;BMP_pressure;BME280_temperature;BME280_humidity;BME280_pressure;Samples;Min_cycle;Max_cycle;Signal;HPM_P1;HPM_P2
2022/07/10 00:00:05;;;;;;;;;2.67;2.33;;;;;23.69;51.85;102412.63;5042496;28;45531;-73
2022/07/10 00:02:31;;;;;;;;;4.00;1.67;;;;;23.67;52.36;102417.16;5045120;28;45364;-73
2022/07/10 00:04:56;;;;;;;;;2.67;2.67;;;;;23.63;52.24;102415.44;5044903;28;58964;-73
2022/07/10 00:07:21;;;;;;;;;2.00;2.00;;;;;23.61;52.38;102413.66;5046651;28;66902;-73
2022/07/10 00:09:47;;;;;;;;;2.33;1.00;;;;;23.56;52.57;102407.47;5049866;28;54511;-73
2022/07/10 00:12:12;;;;;;;;;3.00;2.00;;;;;23.53;52.51;102411.97;5045075;28;63227;-73
2022/07/10 00:14:37;;;;;;;;;2.33;2.00;;;;;23.49;52.86;102407.56;5044411;28;56747;-73
2022/07/10 00:17:03;;;;;;;;;2.00;2.00;;;;;23.48;52.87;102408.47;5044625;28;58706;-73
2022/07/10 00:19:29;;;;;;;;;2.00;2.00;;;;;23.46;52.97;102415.69;5038579;28;45470;-73
2022/07/10 00:21:54;;;;;;;;;2.00;2.00;;;;;23.45;53.10;102418.44;5045218;28;58340;-75
2022/07/10 00:24:19;;;;;;;;;2.00;2.00;;;;;23.40;53.35;102418.50;5054388;28;62424;-74
2022/07/10 00:26:46;;;;;;;;;4.00;2.00;;;;;23.36;53.58;102416.78;5053180;28;65347;-74
2022/07/10 00:29:11;;;;;;;;;3.00;3.00;;;;;23.36;53.52;102421.28;5058849;28;45543;-73
2022/07/10 00:31:37;;;;;;;;;3.33;2.33;;;;;23.32;53.38;102414.16;5045924;28;60650;-74
2022/07/10 00:34:02;;;;;;;;;1.33;1.33;;;;;23.30;53.71;102424.97;5042883;28;59062;-74
2022/07/10 00:36:27;;;;;;;;;2.00;2.00;;;;;23.28;53.76;102432.19;5040520;28;45797;-73
2022/07/10 00:38:53;;;;;;;;;3.67;3.00;;;;;23.24;54.01;102417.88;5053925;28;61334;-74
2022/07/10 00:41:18;;;;;;;;;2.00;2.00;;;;;23.21;54.17;102417.03;5054379;28;58073;-74
2022/07/10 00:44:00;;;;;;;;;1.33;1.33;;;;;23.22;54.45;102418.81;5052824;28;45630;-74
2022/07/10 00:46:27;;;;;;;;;2.00;2.00;;;;;23.16;54.70;102414.41;5054712;28;46914;-73
2022/07/10 00:48:53;;;;;;;;;2.00;2.00;;;;;23.12;54.94;102415.41;5055403;28;45781;-74
2022/07/10 00:51:20;;;;;;;;;3.00;3.00;;;;;23.11;55.16;102410.00;5054047;28;45387;-73
2022/07/10 00:53:46;;;;;;;;;4.00;2.00;;;;;23.08;55.35;102399.28;5048448;28;45571;-73
2022/07/10 00:56:15;;;;;;;;;2.67;2.67;;;;;23.06;55.57;102409.19;5033687;28;46570;-73
2022/07/10 00:58:41;;;;;;;;;3.00;3.00;;;;;23.03;55.81;102407.44;5036685;28;45654;-75
2022/07/10 01:01:06;;;;;;;;;5.00;2.33;;;;;22.90;56.37;102403.13;5054548;28;45443;-76
2022/07/10 01:03:32;;;;;;;;;3.00;3.00;;;;;22.77;56.47;102409.59;5054842;28;46398;-76
2022/07/10 01:05:58;;;;;;;;;2.00;2.00;;;;;22.63;56.96;102404.41;5051348;28;72001;-75
2022/07/10 01:08:23;;;;;;;;;2.67;2.67;;;;;22.51;57.05;102405.47;5051061;28;45412;-75
2022/07/10 01:10:49;;;;;;;;;2.67;2.67;;;;;22.38;57.76;102404.75;5033239;28;45356;-75
2022/07/10 01:13:15;;;;;;;;;4.67;2.00;;;;;22.27;58.06;102398.63;5052137;28;45517;-75
2022/07/10 01:15:40;;;;;;;;;1.33;1.33;;;;;22.17;58.45;102405.91;5035774;28;46485;-74
2022/07/10 01:18:06;;;;;;;;;3.00;3.00;;;;;22.06;58.82;102399.75;5048154;28;45446;-76
2022/07/10 01:20:32;;;;;;;;;2.00;2.00;;;;;21.98;59.43;102409.69;5054976;28;47074;-75
2022/07/10 01:22:58;;;;;;;;;4.33;2.33;;;;;21.87;59.98;102407.09;5046629;28;45619;-74
2022/07/10 01:25:24;;;;;;;;;2.00;2.00;;;;;21.81;60.35;102400.91;5038688;28;47710;-75
2022/07/10 01:27:50;;;;;;;;;2.33;2.00;;;;;21.74;60.74;102402.78;5041148;28;45530;-76
2022/07/10 01:30:15;;;;;;;;;2.67;2.67;;;;;21.67;61.27;102398.34;5051067;28;45337;-75
2022/07/10 01:32:41;;;;;;;;;2.33;2.33;;;;;21.63;61.50;102408.28;5057519;28;51404;-75
2022/07/10 01:35:07;;;;;;;;;2.67;2.33;;;;;21.58;62.06;102406.53;5056956;28;46528;-76
2022/07/10 01:37:32;;;;;;;;;4.00;2.00;;;;;21.53;62.70;102411.94;5045660;28;45401;-75
2022/07/10 01:39:58;;;;;;;;;4.00;2.00;;;;;21.48;62.72;102410.22;5048637;28;45496;-75
2022/07/10 01:42:23;;;;;;;;;4.00;2.67;;;;;21.42;63.20;102403.97;5042294;28;64342;-75
2022/07/10 01:44:48;;;;;;;;;2.67;2.67;;;;;21.37;63.62;102405.81;5042067;28;68090;-75
2022/07/10 01:47:14;;;;;;;;;3.00;3.00;;;;;21.31;63.53;102403.19;5055994;28;45439;-75
2022/07/10 01:49:39;;;;;;;;;4.33;3.00;;;;;21.26;64.21;102402.28;5055123;28;65006;-76
2022/07/10 01:52:05;;;;;;;;;3.00;0.00;;;;;21.22;64.54;102410.41;5042487;28;51045;-75
2022/07/10 01:54:30;;;;;;;;;2.33;2.33;;;;;21.22;64.59;102410.41;5043051;28;47578;-74
2022/07/10 01:56:55;;;;;;;;;4.00;2.33;;;;;21.15;65.18;102409.56;5040540;28;45603;-76
2022/07/10 01:59:21;;;;;;;;;3.00;3.00;;;;;21.09;65.35;102410.50;5038576;28;55610;-74
2022/07/10 02:01:46;;;;;;;;;2.00;2.00;;;;;21.06;65.67;102410.50;5042156;28;46773;-75
2022/07/10 02:06:55;;;;;;;;;2.33;2.33;;;;;20.99;66.34;102419.53;5039351;28;45321;-75
2022/07/10 02:09:21;;;;;;;;;2.67;2.67;;;;;20.97;66.76;102420.41;5039928;28;45327;-75
2022/07/10 02:11:46;;;;;;;;;4.33;3.00;;;;;20.91;66.99;102414.19;5039549;28;50304;-76
2022/07/10 02:14:11;;;;;;;;;2.00;2.00;;;;;20.87;66.84;102417.78;5039149;28;71484;-75
2022/07/10 02:16:37;;;;;;;;;5.00;3.00;;;;;20.85;67.13;102418.72;5038789;28;45344;-74
2022/07/10 02:19:03;;;;;;;;;5.00;3.67;;;;;20.79;67.19;102410.69;5034894;28;46580;-74
2022/07/10 02:21:29;;;;;;;;;6.00;3.33;;;;;20.76;68.05;102411.59;5039555;28;45290;-75
2022/07/10 02:23:54;;;;;;;;;4.00;2.67;;;;;20.74;67.70;102405.34;5042877;28;70145;-75
2022/07/10 02:26:19;;;;;;;;;6.00;3.00;;;;;20.67;68.30;102398.25;5043170;28;68779;-75
2022/07/10 02:28:45;;;;;;;;;4.00;3.00;;;;;20.65;68.68;102400.03;5042739;28;45569;-76
2022/07/10 02:31:10;;;;;;;;;7.00;3.00;;;;;20.64;69.03;102399.13;5044349;28;45383;-75
2022/07/10 02:33:36;;;;;;;;;4.00;3.33;;;;;20.61;69.33;102401.84;5041455;28;46883;-76
2022/07/10 02:36:02;;;;;;;;;2.00;2.00;;;;;20.59;69.53;102392.91;5048761;28;45456;-75
2022/07/10 02:38:28;;;;;;;;;6.00;3.00;;;;;20.57;69.74;102396.50;5046737;28;45384;-75
2022/07/10 02:40:53;;;;;;;;;5.33;3.00;;;;;20.53;69.80;102386.69;5043569;28;56212;-75
2022/07/10 02:43:18;;;;;;;;;3.00;3.00;;;;;20.49;70.05;102391.16;5043648;28;65656;-75
2022/07/10 02:45:44;;;;;;;;;6.00;3.00;;;;;20.45;70.30;102388.47;5043232;28;68863;-76
2022/07/10 02:48:09;;;;;;;;;2.00;2.00;;;;;20.41;70.25;102376.88;5048670;28;45459;-76
2022/07/10 02:50:35;;;;;;;;;2.33;2.33;;;;;20.36;71.05;102384.94;5041636;28;45494;-75
2022/07/10 02:53:00;;;;;;;;;4.00;3.33;;;;;20.34;71.35;102389.41;5049367;28;65457;-75
2022/07/10 02:55:26;;;;;;;;;2.00;2.00;;;;;20.29;71.12;102383.16;5037481;28;45293;-74
2022/07/10 02:57:51;;;;;;;;;7.00;3.00;;;;;20.26;71.79;102391.25;5038679;28;45300;-75
2022/07/10 03:00:17;;;;;;;;;2.67;2.67;;;;;20.25;72.38;102388.59;5041149;28;59458;-75
2022/07/10 03:02:42;;;;;;;;;2.67;2.67;;;;;20.21;72.53;102385.00;5045789;28;69440;-75
2022/07/10 03:05:08;;;;;;;;;5.33;2.67;;;;;20.18;72.24;102386.81;5040651;28;70004;-75
2022/07/10 03:07:33;;;;;;;;;5.00;4.00;;;;;20.13;73.37;102385.06;5041386;28;45163;-75
2022/07/10 03:09:58;;;;;;;;;2.33;2.33;;;;;20.13;73.10;102385.06;5042884;28;63352;-74
2022/07/10 03:12:24;;;;;;;;;6.33;2.67;;;;;20.10;73.26;102395.78;5043855;28;46486;-75
2022/07/10 03:14:49;;;;;;;;;2.67;2.67;;;;;20.11;73.18;102396.66;5044413;28;63367;-75
2022/07/10 03:17:14;;;;;;;;;3.00;3.00;;;;;20.08;73.37;102388.63;5046723;28;58781;-75
2022/07/10 03:19:40;;;;;;;;;5.00;3.67;;;;;20.03;73.23;102390.47;5046494;28;59556;-75
2022/07/10 03:22:05;;;;;;;;;5.00;4.00;;;;;20.02;73.63;102385.97;5047301;28;65600;-75
2022/07/10 03:24:30;;;;;;;;;4.67;3.33;;;;;19.98;74.27;102390.47;5046431;28;45458;-76
2022/07/10 03:26:56;;;;;;;;;2.67;2.67;;;;;19.94;74.47;102393.16;5047662;28;45491;-76
2022/07/10 03:29:21;;;;;;;;;2.67;2.67;;;;;19.92;75.01;102381.53;5044853;28;45539;-75
2022/07/10 03:31:47;;;;;;;;;2.33;2.00;;;;;19.90;75.47;102392.25;5050358;28;46056;-74
2022/07/10 03:34:12;;;;;;;;;4.67;3.33;;;;;19.88;74.91;102377.97;5051255;28;45447;-75
2022/07/10 03:36:37;;;;;;;;;2.67;2.67;;;;;19.87;75.41;102382.47;5048998;28;62372;-75
2022/07/10 03:39:02;;;;;;;;;5.33;2.33;;;;;19.86;75.35;102382.44;5052072;28;57660;-75
2022/07/10 03:41:28;;;;;;;;;5.00;3.67;;;;;19.82;76.12;102381.56;5052769;28;46573;-75
2022/07/10 03:43:53;;;;;;;;;4.67;3.33;;;;;19.78;76.08;102365.50;5052254;28;64201;-75
2022/07/10 03:46:19;;;;;;;;;5.00;3.67;;;;;19.76;76.62;102386.97;5053961;28;60173;-75
2022/07/10 03:48:44;;;;;;;;;3.33;3.33;;;;;19.73;76.59;102376.22;5054222;28;45351;-75
2022/07/10 03:51:09;;;;;;;;;4.67;3.33;;;;;19.70;77.08;102365.50;5054878;28;66692;-75
2022/07/10 03:53:36;;;;;;;;;5.00;3.00;;;;;19.67;77.11;102368.22;5039639;28;66981;-75
2022/07/10 03:56:01;;;;;;;;;4.00;4.00;;;;;19.66;77.30;102373.59;5047870;28;45578;-75
2022/07/10 03:58:27;;;;;;;;;2.67;2.33;;;;;19.64;77.28;102376.25;5046797;28;50871;-75
2022/07/10 04:00:52;;;;;;;;;4.00;3.00;;;;;19.62;78.33;102376.25;5046641;28;65736;-75
2022/07/10 04:03:17;;;;;;;;;4.00;4.00;;;;;19.60;78.27;102383.41;5044534;28;49595;-75
2022/07/10 04:05:43;;;;;;;;;4.00;4.00;;;;;19.58;78.15;102371.75;5039911;28;45327;-75
2022/07/10 04:08:09;;;;;;;;;6.33;3.33;;;;;19.57;78.22;102379.81;5045829;28;59654;-75
2022/07/10 04:10:35;;;;;;;;;6.33;3.00;;;;;19.53;78.45;102372.66;5040429;28;47419;-75
2022/07/10 04:13:00;;;;;;;;;8.67;3.00;;;;;19.53;79.18;102384.25;5047810;28;64565;-75
2022/07/10 04:15:26;;;;;;;;;4.00;4.00;;;;;19.50;78.99;102388.75;5048504;28;45220;-75
2022/07/10 04:17:52;;;;;;;;;3.33;3.33;;;;;19.49;79.89;102393.19;5047603;28;59756;-75
2022/07/10 04:20:18;;;;;;;;;4.00;4.00;;;;;19.46;79.82;102381.59;5045869;28;47098;-75
2022/07/10 04:22:43;;;;;;;;;4.67;3.00;;;;;19.43;80.10;102377.13;5044520;28;45506;-75
2022/07/10 04:25:09;;;;;;;;;4.00;4.00;;;;;19.42;79.78;102379.81;5046594;28;45445;-75
2022/07/10 04:27:34;;;;;;;;;6.00;3.33;;;;;19.38;80.08;102385.16;5045120;28;45356;-75
2022/07/10 04:30:00;;;;;;;;;4.33;3.00;;;;;19.37;80.46;102378.03;5052761;28;61493;-75
2022/07/10 04:32:27;;;;;;;;;4.33;4.33;;;;;19.36;80.98;102380.72;5058784;28;45409;-75
2022/07/10 04:34:53;;;;;;;;;5.33;4.00;;;;;19.35;80.93;102386.97;5057521;28;45303;-75
2022/07/10 04:37:18;;;;;;;;;5.00;3.67;;;;;19.31;81.35;102378.03;5046291;28;45324;-75
2022/07/10 04:39:44;;;;;;;;;4.67;4.67;;;;;19.31;81.48;102378.03;5053649;28;65189;-74
2022/07/10 04:42:09;;;;;;;;;4.33;4.33;;;;;19.31;81.39;102383.38;5053815;28;45575;-75
2022/07/10 04:44:36;;;;;;;;;7.00;3.00;;;;;19.32;81.63;102376.25;5050576;28;45490;-75
2022/07/10 04:47:01;;;;;;;;;3.33;2.00;;;;;19.31;81.27;102386.06;5058614;28;45549;-75
2022/07/10 04:49:27;;;;;;;;;7.33;4.00;;;;;19.31;81.87;102382.50;5059249;28;46595;-75
2022/07/10 04:51:52;;;;;;;;;4.00;2.33;;;;;19.28;81.74;102371.78;5057133;28;68238;-75
2022/07/10 04:54:18;;;;;;;;;5.67;4.67;;;;;19.31;81.75;102377.16;5058760;28;60141;-75
2022/07/10 04:56:43;;;;;;;;;5.00;5.00;;;;;19.30;81.82;102376.25;5172050;22;46389;-76
2022/07/10 04:59:09;;;;;;;;;4.00;4.00;;;;;19.30;82.09;102375.38;5077960;28;47377;-76
2022/07/10 05:01:35;;;;;;;;;7.00;4.00;;;;;19.29;82.12;102379.84;5074014;28;45516;-75
2022/07/10 05:04:00;;;;;;;;;4.00;4.00;;;;;19.27;82.26;102373.56;5077651;28;45456;-75
2022/07/10 05:06:26;;;;;;;;;4.00;4.00;;;;;19.28;82.46;102375.38;5079023;28;45475;-75
2022/07/10 05:08:51;;;;;;;;;6.00;4.33;;;;;19.27;82.00;102375.34;5078221;28;67553;-75
2022/07/10 05:11:16;;;;;;;;;6.33;3.00;;;;;19.28;82.33;102378.06;5078506;28;45447;-75
2022/07/10 05:13:45;;;;;;;;;3.33;3.33;;;;;19.29;82.54;102376.25;5078465;28;45315;-75
2022/07/10 05:16:12;;;;;;;;;3.33;3.33;;;;;19.28;82.78;102383.41;5077703;28;46462;-76
2022/07/10 05:18:38;;;;;;;;;8.00;4.67;;;;;19.29;82.43;102379.84;5075047;28;47311;-76
2022/07/10 05:21:03;;;;;;;;;6.00;4.00;;;;;19.31;82.75;102385.19;5071746;28;45252;-76
2022/07/10 05:23:29;;;;;;;;;6.00;4.00;;;;;19.31;82.42;102382.50;5077192;28;45418;-75
2022/07/10 05:25:54;;;;;;;;;5.33;4.33;;;;;19.32;82.43;102392.31;5077467;28;55824;-76
2022/07/10 05:28:19;;;;;;;;;5.00;5.00;;;;;19.34;82.68;102387.88;5071377;28;68150;-75
2022/07/10 05:30:45;;;;;;;;;3.00;3.00;;;;;19.35;83.04;102389.66;5076216;28;45169;-75
2022/07/10 05:33:10;;;;;;;;;4.00;3.33;;;;;19.36;82.39;102391.44;5077797;28;55021;-75
2022/07/10 05:35:35;;;;;;;;;5.00;3.33;;;;;19.37;82.28;102396.78;5077502;28;45402;-76
2022/07/10 05:38:01;;;;;;;;;6.00;4.00;;;;;19.38;82.76;102398.56;5068231;28;61151;-75
2022/07/10 05:40:26;;;;;;;;;7.00;5.00;;;;;19.40;82.50;102401.25;5077565;28;59771;-76
2022/07/10 05:42:51;;;;;;;;;4.33;4.33;;;;;19.40;82.77;102403.03;5077107;28;45783;-75
2022/07/10 05:45:17;;;;;;;;;8.33;4.33;;;;;19.43;82.58;102403.03;5078753;28;45277;-76
2022/07/10 05:47:42;;;;;;;;;6.00;4.00;;;;;19.43;83.21;102403.91;5073837;28;70271;-76
2022/07/10 05:50:08;;;;;;;;;5.00;4.00;;;;;19.44;82.35;102400.38;5077665;28;65905;-75
2022/07/10 05:52:33;;;;;;;;;4.67;4.67;;;;;19.47;82.89;102402.13;5077584;28;45399;-76
2022/07/10 05:54:59;;;;;;;;;4.00;4.00;;;;;19.46;82.53;102397.69;5073884;28;45466;-76
2022/07/10 05:57:24;;;;;;;;;4.67;3.67;;;;;19.50;82.73;102400.34;5077382;28;46634;-75
2022/07/10 05:59:50;;;;;;;;;6.67;4.00;;;;;19.52;82.86;102408.38;5076454;28;68208;-75
2022/07/10 06:02:16;;;;;;;;;4.00;4.00;;;;;19.54;82.61;102402.13;5076668;28;45487;-76
2022/07/10 06:04:41;;;;;;;;;4.00;2.67;;;;;19.53;82.50;102396.75;5073940;28;45493;-76
2022/07/10 06:07:07;;;;;;;;;4.33;3.33;;;;;19.57;82.81;102399.44;5057497;28;46834;-76
2022/07/10 06:09:32;;;;;;;;;4.00;3.00;;;;;19.57;82.62;102396.75;5077487;28;67203;-75
2022/07/10 06:11:58;;;;;;;;;7.67;4.67;;;;;19.58;82.05;102400.34;5080217;28;45235;-75
2022/07/10 06:14:23;;;;;;;;;4.33;2.33;;;;;19.58;82.63;102393.19;5081179;28;45126;-75
2022/07/10 06:16:48;;;;;;;;;3.00;3.00;;;;;19.62;82.36;102397.69;5072168;28;71021;-75
2022/07/10 06:19:14;;;;;;;;;6.67;3.67;;;;;19.63;81.97;102391.44;5073753;28;53932;-76
2022/07/10 06:21:39;;;;;;;;;6.33;3.67;;;;;19.65;82.14;102394.09;5077574;28;45648;-75
2022/07/10 06:24:05;;;;;;;;;4.00;2.67;;;;;19.67;81.88;102386.97;5075614;28;62750;-75
2022/07/10 06:26:30;;;;;;;;;5.67;3.67;;;;;19.71;82.40;102393.19;5076455;28;46090;-76
2022/07/10 06:28:55;;;;;;;;;6.33;4.33;;;;;19.73;82.58;102388.75;5068801;28;60778;-76
2022/07/10 06:31:21;;;;;;;;;4.33;4.33;;;;;19.76;82.18;102391.41;5076626;28;63742;-76
2022/07/10 06:33:46;;;;;;;;;4.33;3.00;;;;;19.79;82.59;102394.09;5074086;28;45467;-75
2022/07/10 06:36:12;;;;;;;;;3.67;3.67;;;;;19.83;82.03;102391.41;5076110;28;46392;-76
2022/07/10 06:38:38;;;;;;;;;7.00;4.67;;;;;19.86;81.93;102385.13;5074937;28;45489;-75
2022/07/10 06:41:03;;;;;;;;;3.00;3.00;;;;;19.89;82.24;102379.75;5076284;28;45881;-76
2022/07/10 06:43:29;;;;;;;;;5.00;3.00;;;;;19.92;82.07;102390.50;5077286;28;45775;-76
2022/07/10 06:45:55;;;;;;;;;3.67;3.67;;;;;19.98;81.70;102389.59;5077523;28;46452;-75
2022/07/10 06:48:20;;;;;;;;;3.67;3.67;;;;;20.02;82.07;102388.66;5049899;28;45555;-75
2022/07/10 06:50:45;;;;;;;;;5.00;4.00;;;;;20.08;81.77;102392.22;5076755;28;45526;-76
2022/07/10 06:53:11;;;;;;;;;4.33;3.67;;;;;20.11;81.17;102394.00;5069843;28;45478;-76
2022/07/10 06:55:37;;;;;;;;;2.67;2.00;;;;;20.15;80.77;102385.94;5076258;28;45473;-76
2022/07/10 06:58:03;;;;;;;;;4.33;4.33;;;;;20.20;80.65;102398.44;5057554;28;45513;-76
2022/07/10 07:00:28;;;;;;;;;4.00;4.00;;;;;20.23;80.21;102393.94;5074381;28;45486;-75
2022/07/10 07:02:54;;;;;;;;;4.00;3.00;;;;;20.28;79.29;102389.44;5075069;28;45489;-76
2022/07/10 07:05:19;;;;;;;;;4.00;3.33;;;;;20.30;79.28;102389.47;5072282;28;46173;-75
2022/07/10 07:07:45;;;;;;;;;2.00;2.00;;;;;20.35;78.45;102393.91;5076794;28;45162;-76
2022/07/10 07:10:11;;;;;;;;;3.00;2.00;;;;;20.39;78.52;102394.75;5077387;28;45245;-76
2022/07/10 07:12:37;;;;;;;;;3.33;3.00;;;;;20.47;77.87;102398.34;5071631;28;45514;-76
2022/07/10 07:15:02;;;;;;;;;4.00;3.00;;;;;20.52;77.87;102396.53;5074617;28;46568;-76
2022/07/10 07:17:34;;;;;;;;;3.33;2.00;;;;;20.58;77.31;102390.25;5075942;28;45320;-76
2022/07/10 07:25:28;;;;;;;;;3.00;2.00;;;;;20.74;75.06;102385.66;5076486;28;45255;-76
2022/07/10 07:27:54;;;;;;;;;3.00;1.67;;;;;20.75;74.29;102379.41;5074061;28;45660;-76
2022/07/10 07:30:19;;;;;;;;;3.67;1.67;;;;;20.79;74.74;102379.38;5076543;28;45367;-76
2022/07/10 07:32:46;;;;;;;;;2.00;2.00;;;;;20.84;75.06;102380.22;5076368;28;57469;-75
2022/07/10 07:35:13;;;;;;;;;2.00;2.00;;;;;20.88;73.92;102376.63;5076110;28;46453;-76
2022/07/10 07:37:41;;;;;;;;;2.00;2.00;;;;;20.95;74.17;102371.22;5068899;28;45386;-76
2022/07/10 07:40:09;;;;;;;;;4.00;2.00;;;;;20.98;73.76;102363.13;5075057;28;45497;-75
2022/07/10 07:42:35;;;;;;;;;2.67;2.67;;;;;21.03;73.29;102358.59;5057890;28;46609;-76
2022/07/10 07:45:00;;;;;;;;;2.33;2.33;;;;;21.11;73.35;102354.06;5073107;28;47236;-76
2022/07/10 07:47:26;;;;;;;;;4.00;2.00;;;;;21.17;73.55;102356.69;5073974;28;45228;-76
2022/07/10 07:49:51;;;;;;;;;2.00;2.00;;;;;21.22;72.92;102357.56;5071122;28;45308;-75
2022/07/10 07:52:17;;;;;;;;;3.00;3.00;;;;;21.27;72.97;102353.03;5076188;28;46151;-76
2022/07/10 07:54:42;;;;;;;;;5.00;4.67;;;;;21.32;72.32;102353.03;5074177;28;71812;-76
2022/07/10 07:57:07;;;;;;;;;4.00;2.00;;;;;21.36;71.72;102362.81;5071887;28;67345;-76
2022/07/10 07:59:33;;;;;;;;;3.00;2.67;;;;;21.42;71.91;102360.09;5075509;28;62432;-76
2022/07/10 08:01:58;;;;;;;;;4.00;2.00;;;;;21.47;71.43;102360.06;5073276;28;61658;-75
2022/07/10 08:04:23;;;;;;;;;2.00;2.00;;;;;21.50;70.25;102363.59;5070104;28;68653;-76
2022/07/10 08:06:51;;;;;;;;;2.00;2.00;;;;;21.55;70.20;102366.22;5068565;28;61446;-76
2022/07/10 08:09:20;;;;;;;;;6.00;3.00;;;;;21.59;70.74;102354.53;5044431;28;46294;-75
2022/07/10 08:11:46;;;;;;;;;2.00;2.00;;;;;21.61;70.05;102347.34;5075357;28;45692;-75
2022/07/10 08:14:12;;;;;;;;;3.00;2.67;;;;;21.69;69.96;102356.22;5067876;28;47115;-76
2022/07/10 08:16:38;;;;;;;;;3.00;3.00;;;;;21.74;70.50;102350.81;5071743;28;45468;-76
2022/07/10 08:19:03;;;;;;;;;1.33;1.33;;;;;21.81;70.23;102355.19;5074749;28;45920;-75
2022/07/10 08:21:30;;;;;;;;;2.00;2.00;;;;;21.85;69.64;102351.56;5076433;28;45291;-77
2022/07/10 08:23:55;;;;;;;;;2.00;2.00;;;;;21.89;69.11;102347.91;5067753;28;46624;-76
2022/07/10 08:26:21;;;;;;;;;2.67;2.67;;;;;21.92;68.05;102359.53;5067164;28;45421;-76
2022/07/10 08:28:46;;;;;;;;;2.00;2.00;;;;;21.98;68.64;102350.50;5073112;28;60434;-77
2022/07/10 08:31:11;;;;;;;;;2.00;2.00;;;;;22.02;68.59;102356.75;5071410;28;45577;-77
2022/07/10 08:33:37;;;;;;;;;3.00;2.00;;;;;22.07;67.21;102349.50;5073874;28;65388;-77
2022/07/10 08:36:03;;;;;;;;;2.00;2.00;;;;;22.07;66.79;102353.09;5072264;28;45926;-76
2022/07/10 08:38:29;;;;;;;;;4.33;2.33;;;;;22.11;67.29;102351.28;5068902;28;45509;-76
2022/07/10 08:40:57;;;;;;;;;4.00;2.00;;;;;22.15;66.71;102353.00;5072076;28;45748;-76
2022/07/10 08:43:24;;;;;;;;;3.00;3.00;;;;;22.21;66.24;102348.47;5070820;28;47508;-76
2022/07/10 08:45:50;;;;;;;;;3.00;3.00;;;;;22.28;66.07;102345.69;5074758;28;45300;-75
2022/07/10 08:48:21;;;;;;;;;3.33;2.33;;;;;22.33;66.35;102339.34;5074479;28;45370;-76
2022/07/10 08:50:48;;;;;;;;;2.00;2.00;;;;;22.37;65.29;102335.69;5071739;28;45256;-77
2022/07/10 08:53:20;;;;;;;;;4.67;1.00;;;;;22.42;65.07;102333.78;5055644;28;47684;-77
2022/07/10 08:55:45;;;;;;;;;3.33;2.33;;;;;22.45;65.13;102325.69;5054669;28;45478;-75
2022/07/10 08:58:12;;;;;;;;;2.67;2.67;;;;;22.52;64.91;102329.19;5055540;28;45496;-76
2022/07/10 09:00:37;;;;;;;;;2.33;2.33;;;;;22.57;64.47;102318.34;5071843;28;45436;-75
2022/07/10 09:03:03;;;;;;;;;2.00;2.00;;;;;22.60;64.36;102305.72;5072447;28;47303;-76
2022/07/10 09:05:28;;;;;;;;;2.00;2.00;;;;;22.65;64.02;102313.75;5070624;28;55349;-76
2022/07/10 09:07:54;;;;;;;;;3.33;3.33;;;;;22.70;64.28;102310.06;5072952;28;45508;-75
2022/07/10 09:10:22;;;;;;;;;3.00;3.00;;;;;22.77;63.24;102313.53;5073616;28;46901;-76
2022/07/10 09:12:57;;;;;;;;;3.00;3.00;;;;;22.82;63.66;102292.81;5072075;28;47188;-76
2022/07/10 09:15:29;;;;;;;;;4.00;4.00;;;;;22.86;63.51;102299.94;5071594;28;45442;-76
2022/07/10 09:17:55;;;;;;;;;2.00;2.00;;;;;22.91;63.96;102291.81;5074502;28;45772;-76
2022/07/10 09:20:32;;;;;;;;;2.33;2.00;;;;;22.96;64.33;102300.72;5076320;28;45500;-76
2022/07/10 09:22:58;;;;;;;;;4.00;3.00;;;;;22.99;63.18;102298.81;5071041;28;47262;-76
2022/07/10 09:25:32;;;;;;;;;3.33;3.33;;;;;23.05;63.51;102303.22;5073592;28;45505;-76
2022/07/10 09:27:59;;;;;;;;;5.67;2.00;;;;;23.09;63.10;102302.25;5075486;28;45566;-76
2022/07/10 09:30:35;;;;;;;;;2.67;2.67;;;;;23.15;62.91;102299.44;5075638;28;45569;-77
2022/07/10 09:33:25;;;;;;;;;4.00;2.67;;;;;23.20;63.08;102307.44;5073248;28;46651;-76
2022/07/10 09:36:06;;;;;;;;;2.67;2.67;;;;;23.23;61.93;102305.59;5075595;28;46034;-75
2022/07/10 09:38:44;;;;;;;;;2.67;2.67;;;;;23.29;62.28;102299.22;5055961;28;45529;-78
2022/07/10 09:41:16;;;;;;;;;3.00;1.67;;;;;23.32;61.94;102295.56;5071609;28;45554;-75
2022/07/10 09:43:52;;;;;;;;;2.33;2.33;;;;;23.38;62.38;102301.72;5073553;28;46543;-76
2022/07/10 09:46:21;;;;;;;;;2.00;2.00;;;;;23.44;61.19;102300.75;5070021;28;45519;-76
2022/07/10 09:48:46;;;;;;;;;3.00;3.00;;;;;23.49;61.52;102296.16;5077706;28;45774;-75
2022/07/10 09:51:11;;;;;;;;;3.00;3.00;;;;;23.56;60.31;102307.69;5074486;28;45611;-76
2022/07/10 09:53:40;;;;;;;;;2.33;2.33;;;;;23.62;60.69;102296.78;5070985;28;46308;-76
2022/07/10 09:56:08;;;;;;;;;2.00;2.00;;;;;23.68;60.31;102299.38;5071894;28;45339;-75
2022/07/10 09:58:35;;;;;;;;;3.33;3.00;;;;;23.73;59.09;102292.97;5073350;28;46621;-75
2022/07/10 10:01:03;;;;;;;;;2.00;2.00;;;;;23.76;59.68;102289.34;5073417;28;45415;-75
2022/07/10 10:03:37;;;;;;;;;2.67;2.67;;;;;23.81;59.55;102284.75;5070135;28;45905;-75
2022/07/10 10:06:15;;;;;;;;;4.00;4.00;;;;;23.85;59.43;102291.81;5064343;28;45466;-73
2022/07/10 10:09:02;;;;;;;;;2.00;2.00;;;;;23.92;58.85;102284.50;5075571;28;46837;-73
2022/07/10 10:11:30;;;;;;;;;2.00;2.00;;;;;23.95;57.57;102282.63;5072900;28;46744;-76
2022/07/10 10:13:56;;;;;;;;;2.00;1.00;;;;;24.02;57.78;102281.59;5052609;28;69580;-73
2022/07/10 10:16:22;;;;;;;;;2.00;2.00;;;;;24.10;57.97;102288.59;5041863;28;66225;-76
2022/07/10 10:21:34;;;;;;;;;1.00;1.00;;;;;24.20;56.85;102284.78;5045035;28;45374;-73
2022/07/10 10:24:00;;;;;;;;;2.00;2.00;;;;;24.23;57.62;102265.81;5055862;28;46414;-73
2022/07/10 10:26:26;;;;;;;;;3.00;3.00;;;;;24.26;57.04;102266.63;5065966;28;45644;-74
2022/07/10 10:28:52;;;;;;;;;2.00;2.00;;;;;24.33;57.76;102269.19;5075941;28;45480;-73
2022/07/10 10:31:19;;;;;;;;;2.67;2.00;;;;;24.37;57.36;102266.41;5058247;28;45469;-73
2022/07/10 10:33:45;;;;;;;;;4.00;1.33;;;;;24.39;57.00;102255.56;5075723;28;45553;-73
2022/07/10 10:36:36;;;;;;;;;3.00;2.00;;;;;24.43;56.08;102254.56;5071538;28;45570;-74
2022/07/10 10:39:10;;;;;;;;;2.00;2.00;;;;;24.50;55.23;102259.81;5076245;28;45538;-73
2022/07/10 10:41:51;;;;;;;;;2.00;2.00;;;;;24.56;55.25;102248.84;5070383;28;45628;-73
2022/07/10 10:44:18;;;;;;;;;1.67;1.67;;;;;24.65;55.20;102263.91;5075289;28;46344;-74
2022/07/10 10:46:49;;;;;;;;;3.00;1.00;;;;;24.71;56.23;102262.88;5076687;28;45491;-72
2022/07/10 10:49:16;;;;;;;;;2.33;2.33;;;;;24.75;55.33;102248.38;5056307;28;45469;-76
2022/07/10 10:52:19;;;;;;;;;1.00;1.00;;;;;24.81;55.81;102245.50;5052219;28;45466;-73
2022/07/10 10:54:57;;;;;;;;;2.67;2.67;;;;;24.87;56.15;102250.75;5076924;28;45673;-72
2022/07/10 10:57:23;;;;;;;;;2.00;2.00;;;;;24.91;56.14;102241.66;5073333;28;45753;-73
2022/07/10 10:59:51;;;;;;;;;3.00;2.00;;;;;24.97;55.88;102241.47;5062347;28;45458;-73
2022/07/10 11:02:29;;;;;;;;;5.00;2.00;;;;;25.01;55.58;102229.66;5076890;28;45551;-73
2022/07/10 11:08:00;;;;;;;;;3.33;2.00;;;;;25.12;55.71;102224.00;5074639;28;46096;-73
2022/07/10 11:10:26;;;;;;;;;1.33;1.33;;;;;25.18;55.86;102228.34;5073376;28;45459;-75
2022/07/10 11:13:00;;;;;;;;;4.00;4.00;;;;;25.25;54.83;102232.69;5076158;28;45774;-75
2022/07/10 11:15:29;;;;;;;;;2.67;2.67;;;;;25.31;55.10;102214.47;5070636;28;46573;-74
2022/07/10 11:17:55;;;;;;;;;4.00;4.00;;;;;25.37;54.66;102207.97;5073816;28;45327;-75
2022/07/10 11:20:20;;;;;;;;;2.00;2.00;;;;;25.42;54.97;102215.97;5075393;28;45475;-73
2022/07/10 11:23:00;;;;;;;;;2.00;2.00;;;;;25.51;54.58;102203.03;5057561;28;45255;-74
2022/07/10 11:25:46;;;;;;;;;5.33;5.00;;;;;25.59;54.50;102201.00;5057312;28;46431;-77
2022/07/10 11:28:13;;;;;;;;;3.00;3.00;;;;;25.67;54.36;102199.88;5074181;28;45313;-73
2022/07/10 11:30:49;;;;;;;;;2.67;1.00;;;;;25.74;54.01;102191.59;5040488;28;45539;-76
2022/07/10 11:33:15;;;;;;;;;6.00;4.00;;;;;25.82;53.65;102188.63;5055610;28;45664;-74
2022/07/10 11:35:41;;;;;;;;;3.33;3.00;;;;;25.90;54.27;102197.41;5068625;28;46739;-74